Stewartsville, Missouri
Current Conditions -  °F | °C
As of 4:53 PM on Tuesday 21 Oct 2014 (Local Time) from KSTJ Reporting Station
Clear Clear  
Wind Chill: 73°   Ceiling: Unl
Heat Index: 73°   Visibility: 10mi
Dew Point: 43°   Wind: 7mph
Humidity: 34%   Direction: 120°ESE
Pressure: 30.06"   Gusts: NA
Location:  39.75°N, 94.5°W
Report Text: KSTJ 212153Z 12006KT 10SM CLR 23/06 A3006 RMK AO2 SLP180 T02280061
Loading
Personal Weather Stations






























Interactive Weather Map
Tropical Storm Tracking
New forecast layout! Learn more

10-Day Weather Forecast

Advertisements
Track Severe Weather on mobile